sensor_id;sensor_type;location;lat;lon;timestamp;pressure;altitude;pressure_sealevel;temperature;humidity
7662;BME280;30314;48.184;11.510;2023-01-28T00:00:01;96256.84;;;-2.57;100.00
7662;BME280;30314;48.184;11.510;2023-01-28T00:02:32;96268.03;;;-2.57;100.00
7662;BME280;30314;48.184;11.510;2023-01-28T00:05:05;96268.38;;;-2.60;100.00
7662;BME280;30314;48.184;11.510;2023-01-28T00:07:35;96267.63;;;-2.47;100.00
7662;BME280;30314;48.184;11.510;2023-01-28T00:10:06;96258.03;;;-2.53;100.00
7662;BME280;30314;48.184;11.510;2023-01-28T00:12:36;96260.63;;;-2.53;100.00
7662;BME280;30314;48.184;11.510;2023-01-28T00:15:06;96265.63;;;-2.58;100.00
7662;BME280;30314;48.184;11.510;2023-01-28T00:17:36;96261.59;;;-2.67;100.00
7662;BME280;30314;48.184;11.510;2023-01-28T00:20:10;96271.59;;;-2.64;100.00
7662;BME280;30314;48.184;11.510;2023-01-28T00:22:40;96246.06;;;-2.74;100.00
7662;BME280;30314;48.184;11.510;2023-01-28T00:25:09;96254.50;;;-2.52;100.00
7662;BME280;30314;48.184;11.510;2023-01-28T00:27:39;96260.25;;;-2.50;100.00
7662;BME280;30314;48.184;11.510;2023-01-28T00:30:10;96261.47;;;-2.46;100.00
7662;BME280;30314;48.184;11.510;2023-01-28T00:32:40;96247.69;;;-2.53;100.00
7662;BME280;30314;48.184;11.510;2023-01-28T00:35:13;96260.25;;;-2.57;100.00
7662;BME280;30314;48.184;11.510;2023-01-28T00:37:44;96261.47;;;-2.46;100.00
7662;BME280;30314;48.184;11.510;2023-01-28T00:40:14;96243.13;;;-2.64;100.00
7662;BME280;30314;48.184;11.510;2023-01-28T00:42:44;96254.84;;;-2.62;100.00
7662;BME280;30314;48.184;11.510;2023-01-28T00:45:14;96270.19;;;-2.60;100.00
7662;BME280;30314;48.184;11.510;2023-01-28T00:47:44;96263.03;;;-2.51;100.00
7662;BME280;30314;48.184;11.510;2023-01-28T00:50:16;96257.25;;;-2.53;100.00
7662;BME280;30314;48.184;11.510;2023-01-28T00:52:47;96262.63;;;-2.62;100.00
7662;BME280;30314;48.184;11.510;2023-01-28T00:55:16;96268.22;;;-2.58;100.00
7662;BME280;30314;48.184;11.510;2023-01-28T00:57:47;96254.84;;;-2.69;100.00
7662;BME280;30314;48.184;11.510;2023-01-28T01:00:17;96257.69;;;-2.43;100.00
7662;BME280;30314;48.184;11.510;2023-01-28T01:02:53;96255.28;;;-2.38;100.00
7662;BME280;30314;48.184;11.510;2023-01-28T01:05:25;96260.88;;;-2.28;100.00
7662;BME280;30314;48.184;11.510;2023-01-28T01:07:55;96235.94;;;-2.56;100.00
7662;BME280;30314;48.184;11.510;2023-01-28T01:10:24;96260.84;;;-2.48;100.00
7662;BME280;30314;48.184;11.510;2023-01-28T01:12:54;96242.91;;;-2.56;100.00
7662;BME280;30314;48.184;11.510;2023-01-28T01:15:24;96264.19;;;-2.67;100.00
7662;BME280;30314;48.184;11.510;2023-01-28T01:17:55;96270.97;;;-2.66;100.00
7662;BME280;30314;48.184;11.510;2023-01-28T01:20:28;96264.03;;;-2.59;100.00
7662;BME280;30314;48.184;11.510;2023-01-28T01:22:59;96272.41;;;-2.44;100.00
7662;BME280;30314;48.184;11.510;2023-01-28T01:25:28;96273.19;;;-2.63;100.00
7662;BME280;30314;48.184;11.510;2023-01-28T01:27:58;96275.94;;;-2.72;100.00
7662;BME280;30314;48.184;11.510;2023-01-28T01:30:27;96273.34;;;-2.72;100.00
7662;BME280;30314;48.184;11.510;2023-01-28T01:32:57;96273.97;;;-2.63;100.00
7662;BME280;30314;48.184;11.510;2023-01-28T01:35:29;96281.94;;;-2.64;100.00
7662;BME280;30314;48.184;11.510;2023-01-28T01:37:59;96267.56;;;-2.80;100.00
7662;BME280;30314;48.184;11.510;2023-01-28T01:40:29;96278.47;;;-2.85;100.00
7662;BME280;30314;48.184;11.510;2023-01-28T01:42:59;96286.44;;;-2.87;100.00
7662;BME280;30314;48.184;11.510;2023-01-28T01:45:30;96258.50;;;-3.12;100.00
7662;BME280;30314;48.184;11.510;2023-01-28T01:48:05;96287.22;;;-2.93;100.00
7662;BME280;30314;48.184;11.510;2023-01-28T01:50:50;96283.84;;;-2.87;100.00
7662;BME280;30314;48.184;11.510;2023-01-28T01:53:24;96285.84;;;-2.89;100.00
7662;BME280;30314;48.184;11.510;2023-01-28T01:55:58;96179.94;;;-3.52;100.00
7662;BME280;30314;48.184;11.510;2023-01-28T01:58:33;96294.63;;;-2.83;100.00
7662;BME280;30314;48.184;11.510;2023-01-28T02:01:05;96280.25;;;-2.92;100.00
7662;BME280;30314;48.184;11.510;2023-01-28T02:03:40;96262.31;;;-3.01;100.00
7662;BME280;30314;48.184;11.510;2023-01-28T02:06:14;96295.22;;;-2.81;100.00
7662;BME280;30314;48.184;11.510;2023-01-28T02:08:44;96293.47;;;-2.74;100.00
7662;BME280;30314;48.184;11.510;2023-01-28T02:11:15;96298.22;;;-2.77;100.00
7662;BME280;30314;48.184;11.510;2023-01-28T02:13:49;96271.72;;;-2.86;100.00
7662;BME280;30314;48.184;11.510;2023-01-28T02:16:23;96296.88;;;-2.60;100.00
7662;BME280;30314;48.184;11.510;2023-01-28T02:18:53;96304.66;;;-2.53;100.00
7662;BME280;30314;48.184;11.510;2023-01-28T02:21:44;96301.88;;;-2.58;100.00
7662;BME280;30314;48.184;11.510;2023-01-28T02:24:44;96300.81;;;-2.71;100.00
7662;BME280;30314;48.184;11.510;2023-01-28T02:27:27;96295.44;;;-2.76;100.00
7662;BME280;30314;48.184;11.510;2023-01-28T02:30:06;96300.03;;;-2.78;100.00
7662;BME280;30314;48.184;11.510;2023-01-28T02:32:42;96270.72;;;-2.85;100.00
7662;BME280;30314;48.184;11.510;2023-01-28T02:35:17;96291.91;;;-2.61;100.00
7662;BME280;30314;48.184;11.510;2023-01-28T02:37:53;96291.91;;;-2.61;100.00
7662;BME280;30314;48.184;11.510;2023-01-28T02:40:41;96308.22;;;-2.61;100.00
7662;BME280;30314;48.184;11.510;2023-01-28T02:43:31;96307.44;;;-2.55;100.00
7662;BME280;30314;48.184;11.510;2023-01-28T02:46:11;96305.88;;;-2.56;100.00
7662;BME280;30314;48.184;11.510;2023-01-28T02:48:56;96291.66;;;-2.73;100.00
7662;BME280;30314;48.184;11.510;2023-01-28T02:51:34;96311.81;;;-2.55;100.00
7662;BME280;30314;48.184;11.510;2023-01-28T02:54:11;96267.28;;;-2.99;100.00
7662;BME280;30314;48.184;11.510;2023-01-28T02:56:47;96308.78;;;-2.72;100.00
7662;BME280;30314;48.184;11.510;2023-01-28T02:59:26;96311.81;;;-2.62;100.00
7662;BME280;30314;48.184;11.510;2023-01-28T03:02:14;96297.81;;;-2.74;100.00
7662;BME280;30314;48.184;11.510;2023-01-28T03:04:51;96312.38;;;-2.66;100.00
7662;BME280;30314;48.184;11.510;2023-01-28T03:07:25;96316.41;;;-2.57;100.00
7662;BME280;30314;48.184;11.510;2023-01-28T03:09:57;96313.03;;;-2.58;100.00
7662;BME280;30314;48.184;11.510;2023-01-28T03:12:31;96275.25;;;-3.01;100.00
7662;BME280;30314;48.184;11.510;2023-01-28T03:15:15;96305.97;;;-2.84;100.00
7662;BME280;30314;48.184;11.510;2023-01-28T03:18:04;96307.78;;;-2.78;100.00
7662;BME280;30314;48.184;11.510;2023-01-28T03:20:50;96324.56;;;-2.60;100.00
7662;BME280;30314;48.184;11.510;2023-01-28T03:23:39;96325.31;;;-2.66;100.00
7662;BME280;30314;48.184;11.510;2023-01-28T03:26:23;96323.91;;;-2.76;100.00
7662;BME280;30314;48.184;11.510;2023-01-28T03:29:09;96334.28;;;-2.76;100.00
7662;BME280;30314;48.184;11.510;2023-01-28T03:34:51;96333.75;;;-2.58;100.00
7662;BME280;30314;48.184;11.510;2023-01-28T03:37:34;96334.88;;;-2.74;100.00
7662;BME280;30314;48.184;11.510;2023-01-28T03:40:11;96329.28;;;-2.77;100.00
7662;BME280;30314;48.184;11.510;2023-01-28T03:42:42;96328.09;;;-2.75;100.00
7662;BME280;30314;48.184;11.510;2023-01-28T03:45:31;96332.69;;;-2.77;100.00
7662;BME280;30314;48.184;11.510;2023-01-28T03:48:03;96323.69;;;-2.81;100.00
7662;BME280;30314;48.184;11.510;2023-01-28T03:50:36;96253.97;;;-2.96;100.00
7662;BME280;30314;48.184;11.510;2023-01-28T03:53:06;96332.91;;;-2.65;100.00
7662;BME280;30314;48.184;11.510;2023-01-28T03:55:51;96337.06;;;-2.71;100.00
7662;BME280;30314;48.184;11.510;2023-01-28T03:58:22;96336.03;;;-2.83;100.00
7662;BME280;30314;48.184;11.510;2023-01-28T04:01:14;96334.97;;;-2.95;100.00
7662;BME280;30314;48.184;11.510;2023-01-28T04:03:44;96340.06;;;-2.74;100.00
7662;BME280;30314;48.184;11.510;2023-01-28T04:06:20;96332.72;;;-2.63;100.00
7662;BME280;30314;48.184;11.510;2023-01-28T04:09:19;96338.66;;;-2.70;100.00
7662;BME280;30314;48.184;11.510;2023-01-28T04:12:03;96345.47;;;-2.62;100.00
7662;BME280;30314;48.184;11.510;2023-01-28T04:14:40;96341.22;;;-2.76;100.00
7662;BME280;30314;48.184;11.510;2023-01-28T04:17:14;96349.56;;;-2.81;100.00
7662;BME280;30314;48.184;11.510;2023-01-28T04:19:45;96340.81;;;-2.80;100.00
7662;BME280;30314;48.184;11.510;2023-01-28T04:22:18;96349.97;;;-2.84;100.00
7662;BME280;30314;48.184;11.510;2023-01-28T04:24:49;96345.75;;;-2.92;100.00
7662;BME280;30314;48.184;11.510;2023-01-28T04:27:20;96341.97;;;-2.89;100.00
7662;BME280;30314;48.184;11.510;2023-01-28T04:29:49;96354.16;;;-2.76;100.00
7662;BME280;30314;48.184;11.510;2023-01-28T04:32:36;96353.16;;;-2.82;100.00
7662;BME280;30314;48.184;11.510;2023-01-28T04:35:29;96357.53;;;-2.83;100.00
7662;BME280;30314;48.184;11.510;2023-01-28T04:38:26;96361.78;;;-2.68;100.00
7662;BME280;30314;48.184;11.510;2023-01-28T04:41:08;96360.75;;;-2.74;100.00
7662;BME280;30314;48.184;11.510;2023-01-28T04:43:38;96360.50;;;-2.86;100.00
7662;BME280;30314;48.184;11.510;2023-01-28T04:46:25;96363.44;;;-2.95;100.00
7662;BME280;30314;48.184;11.510;2023-01-28T04:49:08;96355.47;;;-3.01;100.00
7662;BME280;30314;48.184;11.510;2023-01-28T04:51:49;96365.72;;;-2.72;100.00
7662;BME280;30314;48.184;11.510;2023-01-28T04:54:30;96367.31;;;-2.78;100.00
7662;BME280;30314;48.184;11.510;2023-01-28T04:57:01;96367.31;;;-2.78;100.00
7662;BME280;30314;48.184;11.510;2023-01-28T04:59:31;96380.22;;;-2.85;100.00
7662;BME280;30314;48.184;11.510;2023-01-28T05:02:01;96361.44;;;-2.93;100.00
7662;BME280;30314;48.184;11.510;2023-01-28T05:04:31;96376.00;;;-2.86;100.00
7662;BME280;30314;48.184;11.510;2023-01-28T05:07:00;96379.00;;;-2.89;100.00
7662;BME280;30314;48.184;11.510;2023-01-28T05:09:34;96330.75;;;-3.03;100.00
7662;BME280;30314;48.184;11.510;2023-01-28T05:12:05;96382.50;;;-2.68;100.00
7662;BME280;30314;48.184;11.510;2023-01-28T05:14:36;96311.13;;;-3.26;100.00
7662;BME280;30314;48.184;11.510;2023-01-28T05:17:12;96347.38;;;-2.84;100.00
7662;BME280;30314;48.184;11.510;2023-01-28T05:19:43;96353.53;;;-2.85;100.00
7662;BME280;30314;48.184;11.510;2023-01-28T05:22:21;96370.03;;;-2.93;100.00
7662;BME280;30314;48.184;11.510;2023-01-28T05:25:11;96371.38;;;-3.04;100.00
7662;BME280;30314;48.184;11.510;2023-01-28T05:27:48;96304.19;;;-3.54;100.00
7662;BME280;30314;48.184;11.510;2023-01-28T05:30:21;96390.53;;;-2.91;100.00
7662;BME280;30314;48.184;11.510;2023-01-28T05:32:54;96320.31;;;-3.23;100.00
7662;BME280;30314;48.184;11.510;2023-01-28T05:35:24;96382.19;;;-2.87;100.00
7662;BME280;30314;48.184;11.510;2023-01-28T05:37:54;96383.59;;;-2.84;100.00
7662;BME280;30314;48.184;11.510;2023-01-28T05:40:26;96333.81;;;-3.28;100.00
7662;BME280;30314;48.184;11.510;2023-01-28T05:42:56;96356.03;;;-3.05;100.00
7662;BME280;30314;48.184;11.510;2023-01-28T05:45:36;96401.84;;;-2.92;100.00
7662;BME280;30314;48.184;11.510;2023-01-28T05:48:12;96410.47;;;-2.85;100.00
7662;BME280;30314;48.184;11.510;2023-01-28T05:51:17;96409.53;;;-3.06;100.00
7662;BME280;30314;48.184;11.510;2023-01-28T05:53:53;96418.19;;;-2.92;100.00
7662;BME280;30314;48.184;11.510;2023-01-28T05:56:25;96415.56;;;-2.99;100.00
7662;BME280;30314;48.184;11.510;2023-01-28T05:58:55;96414.97;;;-3.01;100.00
7662;BME280;30314;48.184;11.510;2023-01-28T06:01:24;96393.59;;;-3.16;100.00
7662;BME280;30314;48.184;11.510;2023-01-28T06:03:54;96419.19;;;-2.93;100.00
7662;BME280;30314;48.184;11.510;2023-01-28T06:06:27;96416.94;;;-3.03;100.00
7662;BME280;30314;48.184;11.510;2023-01-28T06:08:57;96391.00;;;-3.16;100.00
7662;BME280;30314;48.184;11.510;2023-01-28T06:11:32;96406.16;;;-3.06;100.00
7662;BME280;30314;48.184;11.510;2023-01-28T06:14:04;96392.94;;;-3.25;100.00
7662;BME280;30314;48.184;11.510;2023-01-28T06:17:02;96427.31;;;-3.03;100.00
7662;BME280;30314;48.184;11.510;2023-01-28T06:19:52;96428.34;;;-2.97;100.00
7662;BME280;30314;48.184;11.510;2023-01-28T06:22:22;96435.06;;;-3.03;100.00
7662;BME280;30314;48.184;11.510;2023-01-28T06:24:51;96429.63;;;-3.08;100.00
7662;BME280;30314;48.184;11.510;2023-01-28T06:27:24;96440.97;;;-3.09;100.00
7662;BME280;30314;48.184;11.510;2023-01-28T06:29:53;96374.66;;;-3.45;100.00
7662;BME280;30314;48.184;11.510;2023-01-28T06:32:23;96441.22;;;-3.04;100.00
7662;BME280;30314;48.184;11.510;2023-01-28T06:34:53;96443.44;;;-3.01;100.00
7662;BME280;30314;48.184;11.510;2023-01-28T06:37:23;96437.88;;;-2.98;100.00
7662;BME280;30314;48.184;11.510;2023-01-28T06:39:52;96375.91;;;-3.41;100.00
7662;BME280;30314;48.184;11.510;2023-01-28T06:42:24;96451.22;;;-2.94;100.00
7662;BME280;30314;48.184;11.510;2023-01-28T06:44:54;96457.78;;;-2.98;100.00
7662;BME280;30314;48.184;11.510;2023-01-28T06:47:24;96451.41;;;-2.95;100.00
7662;BME280;30314;48.184;11.510;2023-01-28T06:49:53;96454.56;;;-3.00;100.00
7662;BME280;30314;48.184;11.510;2023-01-28T06:52:23;96457.97;;;-3.00;100.00
7662;BME280;30314;48.184;11.510;2023-01-28T06:54:53;96454.78;;;-3.02;100.00
7662;BME280;30314;48.184;11.510;2023-01-28T06:57:25;96452.19;;;-3.02;100.00
7662;BME280;30314;48.184;11.510;2023-01-28T06:59:55;96449.59;;;-3.02;100.00
7662;BME280;30314;48.184;11.510;2023-01-28T07:02:25;96460.41;;;-2.91;100.00
7662;BME280;30314;48.184;11.510;2023-01-28T07:04:54;96440.41;;;-3.04;100.00
7662;BME280;30314;48.184;11.510;2023-01-28T07:07:24;96445.66;;;-3.19;100.00
7662;BME280;30314;48.184;11.510;2023-01-28T07:09:54;96470.53;;;-2.97;100.00
7662;BME280;30314;48.184;11.510;2023-01-28T07:12:26;96466.06;;;-2.74;100.00
7662;BME280;30314;48.184;11.510;2023-01-28T07:14:55;96472.63;;;-2.78;100.00
7662;BME280;30314;48.184;11.510;2023-01-28T07:17:25;96471.81;;;-2.79;100.00
7662;BME280;30314;48.184;11.510;2023-01-28T07:19:55;96483.97;;;-2.79;100.00
7662;BME280;30314;48.184;11.510;2023-01-28T07:22:25;96477.75;;;-2.85;100.00
7662;BME280;30314;48.184;11.510;2023-01-28T07:24:54;96484.72;;;-2.86;100.00
7662;BME280;30314;48.184;11.510;2023-01-28T07:27:27;96463.91;;;-2.99;100.00
7662;BME280;30314;48.184;11.510;2023-01-28T07:29:56;96457.78;;;-2.98;100.00
7662;BME280;30314;48.184;11.510;2023-01-28T07:32:26;96482.94;;;-2.85;100.00
7662;BME280;30314;48.184;11.510;2023-01-28T07:34:56;96398.91;;;-3.46;100.00
7662;BME280;30314;48.184;11.510;2023-01-28T07:37:25;96484.41;;;-2.76;100.00
7662;BME280;30314;48.184;11.510;2023-01-28T07:39:55;96424.03;;;-3.18;100.00
7662;BME280;30314;48.184;11.510;2023-01-28T07:42:27;96491.56;;;-2.78;100.00
7662;BME280;30314;48.184;11.510;2023-01-28T07:45:02;96497.09;;;-2.81;100.00
7662;BME280;30314;48.184;11.510;2023-01-28T07:47:32;96491.13;;;-2.81;100.00
7662;BME280;30314;48.184;11.510;2023-01-28T07:50:02;96511.69;;;-2.73;100.00
7662;BME280;30314;48.184;11.510;2023-01-28T07:52:32;96500.34;;;-2.72;100.00
7662;BME280;30314;48.184;11.510;2023-01-28T07:55:07;96505.81;;;-2.60;100.00
7662;BME280;30314;48.184;11.510;2023-01-28T07:57:47;96502.53;;;-2.76;100.00
7662;BME280;30314;48.184;11.510;2023-01-28T08:00:17;96508.09;;;-2.72;100.00
7662;BME280;30314;48.184;11.510;2023-01-28T08:02:48;96511.38;;;-2.63;100.00
7662;BME280;30314;48.184;11.510;2023-01-28T08:05:19;96509.69;;;-2.78;100.00
7662;BME280;30314;48.184;11.510;2023-01-28T08:07:49;96510.59;;;-2.57;100.00
7662;BME280;30314;48.184;11.510;2023-01-28T08:10:19;96463.41;;;-2.88;100.00
7662;BME280;30314;48.184;11.510;2023-01-28T08:12:56;96516.19;;;-2.53;100.00
7662;BME280;30314;48.184;11.510;2023-01-28T08:15:26;96428.44;;;-3.34;100.00
7662;BME280;30314;48.184;11.510;2023-01-28T08:17:57;96528.03;;;-2.44;100.00
7662;BME280;30314;48.184;11.510;2023-01-28T08:20:28;96507.75;;;-2.69;100.00
7662;BME280;30314;48.184;11.510;2023-01-28T08:23:05;96449.44;;;-2.93;100.00
7662;BME280;30314;48.184;11.510;2023-01-28T08:25:35;96531.59;;;-2.45;100.00
7662;BME280;30314;48.184;11.510;2023-01-28T08:28:08;96535.34;;;-2.48;100.00
7662;BME280;30314;48.184;11.510;2023-01-28T08:30:38;96521.56;;;-2.55;100.00
7662;BME280;30314;48.184;11.510;2023-01-28T08:33:09;96539.44;;;-2.32;100.00
7662;BME280;30314;48.184;11.510;2023-01-28T08:35:39;96536.44;;;-2.35;100.00
7662;BME280;30314;48.184;11.510;2023-01-28T08:38:10;96544.66;;;-2.25;100.00
7662;BME280;30314;48.184;11.510;2023-01-28T08:40:41;96544.69;;;-2.18;100.00
7662;BME280;30314;48.184;11.510;2023-01-28T08:43:13;96543.22;;;-2.34;100.00
7662;BME280;30314;48.184;11.510;2023-01-28T08:45:42;96427.84;;;-3.07;100.00
7662;BME280;30314;48.184;11.510;2023-01-28T08:48:14;96534.22;;;-2.38;100.00
7662;BME280;30314;48.184;11.510;2023-01-28T08:50:44;96521.25;;;-2.45;100.00
7662;BME280;30314;48.184;11.510;2023-01-28T08:53:16;96547.63;;;-2.28;100.00
7662;BME280;30314;48.184;11.510;2023-01-28T08:55:46;96547.25;;;-2.25;100.00
7662;BME280;30314;48.184;11.510;2023-01-28T08:58:18;96552.22;;;-2.23;100.00
7662;BME280;30314;48.184;11.510;2023-01-28T09:00:49;96552.69;;;-2.13;100.00
7662;BME280;30314;48.184;11.510;2023-01-28T09:03:18;96481.72;;;-2.54;100.00
7662;BME280;30314;48.184;11.510;2023-01-28T09:05:48;96554.88;;;-2.10;100.00
7662;BME280;30314;48.184;11.510;2023-01-28T09:08:17;96467.03;;;-2.82;100.00
7662;BME280;30314;48.184;11.510;2023-01-28T09:10:53;96536.28;;;-2.20;100.00
7662;BME280;30314;48.184;11.510;2023-01-28T09:13:27;96541.31;;;-2.12;100.00
7662;BME280;30314;48.184;11.510;2023-01-28T09:15:57;96552.72;;;-2.06;100.00
7662;BME280;30314;48.184;11.510;2023-01-28T09:18:27;96555.47;;;-2.15;100.00
7662;BME280;30314;48.184;11.510;2023-01-28T09:20:56;96566.06;;;-2.09;100.00
7662;BME280;30314;48.184;11.510;2023-01-28T09:23:26;96537.25;;;-2.28;100.00
7662;BME280;30314;48.184;11.510;2023-01-28T09:25:59;96566.53;;;-1.99;100.00
7662;BME280;30314;48.184;11.510;2023-01-28T09:28:31;96470.47;;;-2.75;100.00
7662;BME280;30314;48.184;11.510;2023-01-28T09:31:02;96548.69;;;-2.16;100.00
7662;BME280;30314;48.184;11.510;2023-01-28T09:40:10;96536.56;;;17.56;52.49
7662;BME280;30314;48.184;11.510;2023-01-28T09:44:24;96535.13;;;19.42;42.51
7662;BME280;30314;48.184;11.510;2023-01-28T09:47:00;96541.00;;;18.81;42.07
7662;BME280;30314;48.184;11.510;2023-01-28T09:49:36;96540.88;;;18.98;41.78
7662;BME280;30314;48.184;11.510;2023-01-28T09:52:13;96540.88;;;19.20;42.22
7662;BME280;30314;48.184;11.510;2023-01-28T09:54:47;96541.69;;;19.33;41.61
7662;BME280;30314;48.184;11.510;2023-01-28T09:57:22;96547.75;;;19.42;41.51
7662;BME280;30314;48.184;11.510;2023-01-28T09:59:56;96544.53;;;19.49;41.38
7662;BME280;30314;48.184;11.510;2023-01-28T10:02:50;96544.00;;;19.55;41.79
7662;BME280;30314;48.184;11.510;2023-01-28T10:05:31;96540.63;;;19.58;41.98
7662;BME280;30314;48.184;11.510;2023-01-28T10:08:23;96539.97;;;19.62;41.70
7662;BME280;30314;48.184;11.510;2023-01-28T10:11:06;96539.09;;;19.70;41.79
7662;BME280;30314;48.184;11.510;2023-01-28T10:13:46;96523.69;;;19.79;41.96
7662;BME280;30314;48.184;11.510;2023-01-28T10:16:28;96519.22;;;19.83;41.66
7662;BME280;30314;48.184;11.510;2023-01-28T10:19:04;96503.56;;;19.73;49.68
7662;BME280;30314;48.184;11.510;2023-01-28T10:21:40;96522.19;;;19.44;43.50
7662;BME280;30314;48.184;11.510;2023-01-28T10:24:17;96521.13;;;19.37;43.37
7662;BME280;30314;48.184;11.510;2023-01-28T10:26:52;96523.03;;;19.36;43.54
7662;BME280;30314;48.184;11.510;2023-01-28T10:29:26;96523.63;;;19.42;43.89
7662;BME280;30314;48.184;11.510;2023-01-28T10:53:14;96506.22;;;19.61;41.26
7662;BME280;30314;48.184;11.510;2023-01-28T10:55:50;96505.72;;;19.34;42.25
7662;BME280;30314;48.184;11.510;2023-01-28T10:58:23;96514.44;;;19.30;39.92
7662;BME280;30314;48.184;11.510;2023-01-28T11:00:58;96514.69;;;19.38;40.96
7662;BME280;30314;48.184;11.510;2023-01-28T11:03:29;96509.91;;;19.56;43.50
7662;BME280;30314;48.184;11.510;2023-01-28T11:06:01;96508.13;;;19.60;41.49
7662;BME280;30314;48.184;11.510;2023-01-28T11:08:43;96505.00;;;19.58;41.38
7662;BME280;30314;48.184;11.510;2023-01-28T11:11:13;96507.03;;;19.61;41.54
7662;BME280;30314;48.184;11.510;2023-01-28T11:13:50;96513.59;;;19.64;41.64
7662;BME280;30314;48.184;11.510;2023-01-28T11:16:21;96501.75;;;19.52;39.61
7662;BME280;30314;48.184;11.510;2023-01-28T11:18:53;96494.91;;;19.42;35.24
7662;BME280;30314;48.184;11.510;2023-01-28T11:21:27;96502.63;;;19.44;37.73
7662;BME280;30314;48.184;11.510;2023-01-28T11:24:03;96503.50;;;19.48;39.24
7662;BME280;30314;48.184;11.510;2023-01-28T11:26:37;96503.53;;;19.61;39.76
7662;BME280;30314;48.184;11.510;2023-01-28T11:29:29;96509.47;;;19.66;40.34
7662;BME280;30314;48.184;11.510;2023-01-28T11:33:35;96515.63;;;20.47;40.71
7662;BME280;30314;48.184;11.510;2023-01-28T11:36:11;96504.78;;;20.56;40.66
7662;BME280;30314;48.184;11.510;2023-01-28T11:38:53;96511.06;;;20.60;40.86
7662;BME280;30314;48.184;11.510;2023-01-28T11:41:26;96510.72;;;20.61;40.78
7662;BME280;30314;48.184;11.510;2023-01-28T11:43:57;96510.28;;;20.59;41.18
7662;BME280;30314;48.184;11.510;2023-01-28T11:46:40;96511.06;;;20.60;41.59
7662;BME280;30314;48.184;11.510;2023-01-28T11:49:21;96507.25;;;20.61;41.75
7662;BME280;30314;48.184;11.510;2023-01-28T11:51:58;96506.47;;;20.60;41.75
7662;BME280;30314;48.184;11.510;2023-01-28T11:54:45;96498.75;;;20.59;42.63
7662;BME280;30314;48.184;11.510;2023-01-28T11:57:21;96498.88;;;20.62;42.75
7662;BME280;30314;48.184;11.510;2023-01-28T12:00:03;96497.06;;;20.66;42.39
7662;BME280;30314;48.184;11.510;2023-01-28T12:02:52;96500.56;;;20.67;42.69
7662;BME280;30314;48.184;11.510;2023-01-28T12:05:40;96505.94;;;20.67;42.92
7662;BME280;30314;48.184;11.510;2023-01-28T12:08:20;96501.31;;;20.67;42.69
7662;BME280;30314;48.184;11.510;2023-01-28T12:11:13;96487.69;;;20.60;42.59
7662;BME280;30314;48.184;11.510;2023-01-28T12:13:58;96504.44;;;20.70;42.69
7662;BME280;30314;48.184;11.510;2023-01-28T12:16:42;96502.88;;;20.69;43.29
7662;BME280;30314;48.184;11.510;2023-01-28T12:19:23;96504.13;;;20.71;43.08
7662;BME280;30314;48.184;11.510;2023-01-28T12:22:09;96499.56;;;20.72;43.27
7662;BME280;30314;48.184;11.510;2023-01-28T12:24:58;96506.81;;;20.71;43.21
7662;BME280;30314;48.184;11.510;2023-01-28T12:27:42;96499.75;;;20.66;41.82
7662;BME280;30314;48.184;11.510;2023-01-28T12:30:22;96494.75;;;20.65;42.98
7662;BME280;30314;48.184;11.510;2023-01-28T12:33:04;96500.13;;;20.65;42.80
7662;BME280;30314;48.184;11.510;2023-01-28T12:35:52;96505.94;;;20.67;42.60
7662;BME280;30314;48.184;11.510;2023-01-28T12:38:39;96500.56;;;20.67;43.00
7662;BME280;30314;48.184;11.510;2023-01-28T12:41:14;96499.75;;;20.66;43.04
7662;BME280;30314;48.184;11.510;2023-01-28T12:43:50;96500.56;;;20.67;43.06
7662;BME280;30314;48.184;11.510;2023-01-28T12:46:41;96508.25;;;20.69;43.17
7662;BME280;30314;48.184;11.510;2023-01-28T12:49:16;96506.69;;;20.67;43.13
7662;BME280;30314;48.184;11.510;2023-01-28T12:51:55;96505.13;;;20.66;42.90
7662;BME280;30314;48.184;11.510;2023-01-28T12:54:34;96501.78;;;20.70;43.15
7662;BME280;30314;48.184;11.510;2023-01-28T12:57:07;96505.13;;;20.66;43.29
7662;BME280;30314;48.184;11.510;2023-01-28T12:59:45;96497.53;;;20.69;43.62
7662;BME280;30314;48.184;11.510;2023-01-28T13:02:23;96513.63;;;20.69;43.38
7662;BME280;30314;48.184;11.510;2023-01-28T13:04:59;96510.16;;;20.68;43.21
7662;BME280;30314;48.184;11.510;2023-01-28T13:07:35;96501.31;;;20.67;43.32
7662;BME280;30314;48.184;11.510;2023-01-28T13:10:18;96499.09;;;20.70;43.47
7662;BME280;30314;48.184;11.510;2023-01-28T13:12:51;96501.78;;;20.70;43.71
7662;BME280;30314;48.184;11.510;2023-01-28T13:15:22;96503.34;;;20.71;43.29
7662;BME280;30314;48.184;11.510;2023-01-28T13:17:57;96502.25;;;20.72;43.33
7662;BME280;30314;48.184;11.510;2023-01-28T13:20:36;96506.81;;;20.71;43.35
7662;BME280;30314;48.184;11.510;2023-01-28T13:23:23;96502.72;;;20.74;43.42
7662;BME280;30314;48.184;11.510;2023-01-28T13:25:56;96508.09;;;20.74;43.63
7662;BME280;30314;48.184;11.510;2023-01-28T13:28:37;96510.09;;;20.77;43.73
7662;BME280;30314;48.184;11.510;2023-01-28T13:31:08;96508.97;;;20.78;43.66
7662;BME280;30314;48.184;11.510;2023-01-28T13:33:40;96511.22;;;20.76;43.35
7662;BME280;30314;48.184;11.510;2023-01-28T13:36:22;96485.66;;;20.57;43.45
7662;BME280;30314;48.184;11.510;2023-01-28T13:39:01;96512.66;;;20.73;43.55
7662;BME280;30314;48.184;11.510;2023-01-28T13:41:41;96515.44;;;20.77;43.44
7662;BME280;30314;48.184;11.510;2023-01-28T13:44:27;96526.88;;;20.74;43.45
7662;BME280;30314;48.184;11.510;2023-01-28T13:47:11;96524.31;;;20.77;43.43
7662;BME280;30314;48.184;11.510;2023-01-28T13:49:44;96527.31;;;20.76;43.09
7662;BME280;30314;48.184;11.510;2023-01-28T13:52:16;96536.91;;;20.77;43.41
7662;BME280;30314;48.184;11.510;2023-01-28T13:54:52;96532.00;;;20.79;43.43
7662;BME280;30314;48.184;11.510;2023-01-28T14:00:31;96534.25;;;20.77;43.64
7662;BME280;30314;48.184;11.510;2023-01-28T14:03:32;96536.91;;;20.77;43.74
7662;BME280;30314;48.184;11.510;2023-01-28T14:06:43;96540.06;;;20.79;43.29
7662;BME280;30314;48.184;11.510;2023-01-28T14:09:30;96541.16;;;20.78;43.87
7662;BME280;30314;48.184;11.510;2023-01-28T14:12:26;96539.28;;;20.78;43.52